sensor_id;sensor_type;location;lat;lon;timestamp;pressure;altitude;pressure_sealevel;temperature;humidity
64189;BME280;50493;50.970;10.082;2023-07-31T00:02:04;98947.47;;;18.02;57.79
64189;BME280;50493;50.970;10.082;2023-07-31T00:04:30;98935.22;;;18.30;54.76
64189;BME280;50493;50.970;10.082;2023-07-31T00:06:55;98939.38;;;18.48;54.89
64189;BME280;50493;50.970;10.082;2023-07-31T00:09:20;98934.84;;;18.65;54.42
64189;BME280;50493;50.970;10.082;2023-07-31T00:11:46;98935.69;;;18.51;55.80
64189;BME280;50493;50.970;10.082;2023-07-31T00:14:11;98932.16;;;18.22;56.79
64189;BME280;50493;50.970;10.082;2023-07-31T00:16:37;98928.22;;;18.29;55.66
64189;BME280;50493;50.970;10.082;2023-07-31T00:19:03;98922.47;;;18.36;56.17
64189;BME280;50493;50.970;10.082;2023-07-31T00:21:29;98926.88;;;18.22;55.49
64189;BME280;50493;50.970;10.082;2023-07-31T00:23:54;98922.53;;;18.35;55.13
64189;BME280;50493;50.970;10.082;2023-07-31T00:26:19;98921.34;;;18.41;55.84
64189;BME280;50493;50.970;10.082;2023-07-31T00:28:45;98911.78;;;18.67;55.19
64189;BME280;50493;50.970;10.082;2023-07-31T00:31:10;98906.31;;;18.41;56.00
64189;BME280;50493;50.970;10.082;2023-07-31T00:33:36;98910.09;;;18.37;56.35
64189;BME280;50493;50.970;10.082;2023-07-31T00:36:03;98903.56;;;18.72;54.80
64189;BME280;50493;50.970;10.082;2023-07-31T00:38:28;98901.09;;;18.68;55.28
64189;BME280;50493;50.970;10.082;2023-07-31T00:40:54;98900.00;;;18.58;55.42
64189;BME280;50493;50.970;10.082;2023-07-31T00:43:19;98896.94;;;18.64;55.45
64189;BME280;50493;50.970;10.082;2023-07-31T00:45:44;98894.19;;;18.80;54.96
64189;BME280;50493;50.970;10.082;2023-07-31T00:48:10;98888.59;;;18.85;54.24
64189;BME280;50493;50.970;10.082;2023-07-31T00:50:36;98887.66;;;18.72;54.33
64189;BME280;50493;50.970;10.082;2023-07-31T00:53:04;98895.34;;;18.62;53.60
64189;BME280;50493;50.970;10.082;2023-07-31T00:55:30;98882.78;;;18.65;54.95
64189;BME280;50493;50.970;10.082;2023-07-31T00:57:55;98877.34;;;18.52;55.30
64189;BME280;50493;50.970;10.082;2023-07-31T01:00:21;98875.69;;;18.51;55.55
64189;BME280;50493;50.970;10.082;2023-07-31T01:02:47;98870.41;;;18.51;53.19
64189;BME280;50493;50.970;10.082;2023-07-31T01:05:13;98872.47;;;18.46;54.84
64189;BME280;50493;50.970;10.082;2023-07-31T01:07:42;98865.66;;;18.57;51.73
64189;BME280;50493;50.970;10.082;2023-07-31T01:10:15;98862.63;;;18.48;51.20
64189;BME280;50493;50.970;10.082;2023-07-31T01:12:42;98866.97;;;18.49;53.90
64189;BME280;50493;50.970;10.082;2023-07-31T01:15:09;98870.41;;;18.51;53.56
64189;BME280;50493;50.970;10.082;2023-07-31T01:17:39;98855.66;;;18.47;54.69
64189;BME280;50493;50.970;10.082;2023-07-31T01:20:11;98867.84;;;18.21;53.51
64189;BME280;50493;50.970;10.082;2023-07-31T01:22:58;98859.06;;;18.06;54.15
64189;BME280;50493;50.970;10.082;2023-07-31T01:25:50;98855.28;;;18.10;54.81
64189;BME280;50493;50.970;10.082;2023-07-31T01:28:20;98855.19;;;18.12;56.46
64189;BME280;50493;50.970;10.082;2023-07-31T01:30:47;98856.44;;;18.20;55.54
64189;BME280;50493;50.970;10.082;2023-07-31T01:33:13;98853.88;;;18.19;54.46
64189;BME280;50493;50.970;10.082;2023-07-31T01:35:39;98850.94;;;17.95;56.10
64189;BME280;50493;50.970;10.082;2023-07-31T01:38:05;98854.69;;;18.05;54.87
64189;BME280;50493;50.970;10.082;2023-07-31T01:40:31;98855.47;;;18.36;53.68
64189;BME280;50493;50.970;10.082;2023-07-31T01:42:58;98849.41;;;18.05;56.12
64189;BME280;50493;50.970;10.082;2023-07-31T01:45:23;98849.44;;;17.91;56.28
64189;BME280;50493;50.970;10.082;2023-07-31T01:47:49;98843.75;;;17.97;56.49
64189;BME280;50493;50.970;10.082;2023-07-31T01:50:14;98849.97;;;17.81;56.88
64189;BME280;50493;50.970;10.082;2023-07-31T01:52:40;98840.91;;;17.85;56.34
64189;BME280;50493;50.970;10.082;2023-07-31T01:55:05;98841.13;;;17.82;55.44
64189;BME280;50493;50.970;10.082;2023-07-31T01:57:31;98848.28;;;17.80;56.52
64189;BME280;50493;50.970;10.082;2023-07-31T01:59:58;98848.09;;;17.98;56.16
64189;BME280;50493;50.970;10.082;2023-07-31T02:02:23;98841.56;;;17.75;57.24
64189;BME280;50493;50.970;10.082;2023-07-31T02:04:48;98840.91;;;17.85;56.93
64189;BME280;50493;50.970;10.082;2023-07-31T02:07:14;98836.38;;;17.73;57.34
64189;BME280;50493;50.970;10.082;2023-07-31T02:09:39;98840.16;;;17.53;58.19
64189;BME280;50493;50.970;10.082;2023-07-31T02:12:05;98833.00;;;17.55;57.34
64189;BME280;50493;50.970;10.082;2023-07-31T02:14:33;98844.78;;;17.49;58.40
64189;BME280;50493;50.970;10.082;2023-07-31T02:17:00;98840.41;;;17.34;60.41
64189;BME280;50493;50.970;10.082;2023-07-31T02:19:26;98833.19;;;17.52;58.84
64189;BME280;50493;50.970;10.082;2023-07-31T02:21:51;98837.28;;;17.42;58.44
64189;BME280;50493;50.970;10.082;2023-07-31T02:24:16;98839.78;;;17.59;61.11
64189;BME280;50493;50.970;10.082;2023-07-31T02:26:42;98841.19;;;17.50;58.60
64189;BME280;50493;50.970;10.082;2023-07-31T02:29:08;98831.34;;;17.38;60.69
64189;BME280;50493;50.970;10.082;2023-07-31T02:31:33;98835.28;;;17.31;59.04
64189;BME280;50493;50.970;10.082;2023-07-31T02:34:00;98845.84;;;17.31;62.15
64189;BME280;50493;50.970;10.082;2023-07-31T02:36:25;98833.13;;;17.68;60.01
64189;BME280;50493;50.970;10.082;2023-07-31T02:38:50;98834.78;;;17.55;61.45
64189;BME280;50493;50.970;10.082;2023-07-31T02:41:16;98827.09;;;17.35;62.52
64189;BME280;50493;50.970;10.082;2023-07-31T02:43:41;98826.16;;;17.06;62.39
64189;BME280;50493;50.970;10.082;2023-07-31T02:46:07;98818.97;;;17.24;59.99
64189;BME280;50493;50.970;10.082;2023-07-31T02:48:33;98825.00;;;17.26;62.36
64189;BME280;50493;50.970;10.082;2023-07-31T02:50:59;98826.91;;;17.39;61.97
64189;BME280;50493;50.970;10.082;2023-07-31T02:53:25;98821.56;;;17.55;61.54
64189;BME280;50493;50.970;10.082;2023-07-31T02:55:50;98838.75;;;17.47;61.36
64189;BME280;50493;50.970;10.082;2023-07-31T02:58:15;98841.38;;;17.47;62.24
64189;BME280;50493;50.970;10.082;2023-07-31T03:00:42;98840.13;;;17.08;62.33
64189;BME280;50493;50.970;10.082;2023-07-31T03:03:07;98839.41;;;17.21;63.64
64189;BME280;50493;50.970;10.082;2023-07-31T03:05:32;98837.22;;;16.97;63.13
64189;BME280;50493;50.970;10.082;2023-07-31T03:07:59;98842.59;;;16.95;64.29
64189;BME280;50493;50.970;10.082;2023-07-31T03:10:25;98842.38;;;16.84;63.21
64189;BME280;50493;50.970;10.082;2023-07-31T03:12:50;98832.13;;;16.94;60.86
64189;BME280;50493;50.970;10.082;2023-07-31T03:15:15;98830.94;;;16.99;60.30
64189;BME280;50493;50.970;10.082;2023-07-31T03:17:41;98828.53;;;17.11;60.35
64189;BME280;50493;50.970;10.082;2023-07-31T03:20:07;98824.06;;;17.27;60.82
64189;BME280;50493;50.970;10.082;2023-07-31T03:22:33;98816.66;;;17.18;60.42
64189;BME280;50493;50.970;10.082;2023-07-31T03:25:01;98822.06;;;17.31;61.86
64189;BME280;50493;50.970;10.082;2023-07-31T03:27:27;98817.78;;;17.14;59.70
64189;BME280;50493;50.970;10.082;2023-07-31T03:29:52;98824.88;;;17.13;62.92
64189;BME280;50493;50.970;10.082;2023-07-31T03:32:18;98824.09;;;17.42;61.66
64189;BME280;50493;50.970;10.082;2023-07-31T03:34:43;98815.59;;;17.36;59.67
64189;BME280;50493;50.970;10.082;2023-07-31T03:37:09;98822.75;;;17.65;62.12
64189;BME280;50493;50.970;10.082;2023-07-31T03:39:34;98817.91;;;17.27;62.75
64189;BME280;50493;50.970;10.082;2023-07-31T03:42:01;98815.69;;;17.35;60.84
64189;BME280;50493;50.970;10.082;2023-07-31T03:44:26;98813.59;;;17.40;60.07
64189;BME280;50493;50.970;10.082;2023-07-31T03:46:52;98815.13;;;17.30;62.66
64189;BME280;50493;50.970;10.082;2023-07-31T03:49:17;98818.41;;;17.33;61.73
64189;BME280;50493;50.970;10.082;2023-07-31T03:51:43;98816.28;;;17.10;62.67
64189;BME280;50493;50.970;10.082;2023-07-31T03:54:08;98803.97;;;17.25;62.03
64189;BME280;50493;50.970;10.082;2023-07-31T03:56:34;98809.44;;;17.22;61.38
64189;BME280;50493;50.970;10.082;2023-07-31T03:59:00;98809.19;;;17.41;60.81
64189;BME280;50493;50.970;10.082;2023-07-31T04:01:26;98810.47;;;17.19;61.97
64189;BME280;50493;50.970;10.082;2023-07-31T04:03:51;98801.06;;;17.44;61.13
64189;BME280;50493;50.970;10.082;2023-07-31T04:06:17;98809.06;;;17.28;62.25
64189;BME280;50493;50.970;10.082;2023-07-31T04:08:43;98818.00;;;17.56;61.29
64189;BME280;50493;50.970;10.082;2023-07-31T04:11:08;98805.63;;;17.56;60.58
64189;BME280;50493;50.970;10.082;2023-07-31T04:13:34;98812.09;;;17.36;58.21
64189;BME280;50493;50.970;10.082;2023-07-31T04:16:01;98821.13;;;17.32;57.90
64189;BME280;50493;50.970;10.082;2023-07-31T04:18:26;98822.50;;;17.39;58.17
64189;BME280;50493;50.970;10.082;2023-07-31T04:20:51;98816.09;;;17.58;58.19
64189;BME280;50493;50.970;10.082;2023-07-31T04:23:17;98815.53;;;17.52;57.74
64189;BME280;50493;50.970;10.082;2023-07-31T04:25:42;98805.53;;;17.58;57.13
64189;BME280;50493;50.970;10.082;2023-07-31T04:28:08;98808.97;;;17.74;60.39
64189;BME280;50493;50.970;10.082;2023-07-31T04:30:33;98809.94;;;17.73;59.86
64189;BME280;50493;50.970;10.082;2023-07-31T04:33:00;98802.00;;;17.88;59.18
64189;BME280;50493;50.970;10.082;2023-07-31T04:35:25;98792.66;;;17.82;60.09
64189;BME280;50493;50.970;10.082;2023-07-31T04:37:50;98790.84;;;17.68;57.14
64189;BME280;50493;50.970;10.082;2023-07-31T04:40:16;98800.09;;;17.75;57.32
64189;BME280;50493;50.970;10.082;2023-07-31T04:42:41;98794.59;;;17.64;59.16
64189;BME280;50493;50.970;10.082;2023-07-31T04:45:09;98807.69;;;17.36;57.73
64189;BME280;50493;50.970;10.082;2023-07-31T04:47:34;98805.03;;;17.06;58.78
64189;BME280;50493;50.970;10.082;2023-07-31T04:50:01;98808.06;;;17.14;57.95
64189;BME280;50493;50.970;10.082;2023-07-31T04:52:26;98802.69;;;16.85;61.33
64189;BME280;50493;50.970;10.082;2023-07-31T04:54:52;98812.88;;;16.76;59.02
64189;BME280;50493;50.970;10.082;2023-07-31T04:57:17;98803.56;;;17.16;60.73
64189;BME280;50493;50.970;10.082;2023-07-31T04:59:43;98810.50;;;17.03;58.24
64189;BME280;50493;50.970;10.082;2023-07-31T05:02:08;98807.94;;;17.32;60.23
64189;BME280;50493;50.970;10.082;2023-07-31T05:04:34;98807.72;;;17.21;57.92
64189;BME280;50493;50.970;10.082;2023-07-31T05:07:01;98815.41;;;17.09;62.07
64189;BME280;50493;50.970;10.082;2023-07-31T05:09:26;98815.75;;;17.19;58.08
64189;BME280;50493;50.970;10.082;2023-07-31T05:11:51;98821.16;;;17.01;63.00
64189;BME280;50493;50.970;10.082;2023-07-31T05:14:17;98809.97;;;17.12;62.26
64189;BME280;50493;50.970;10.082;2023-07-31T05:16:42;98807.44;;;16.95;59.08
64189;BME280;50493;50.970;10.082;2023-07-31T05:19:07;98806.03;;;17.03;62.88
64189;BME280;50493;50.970;10.082;2023-07-31T05:21:33;98801.97;;;16.98;62.95
64189;BME280;50493;50.970;10.082;2023-07-31T05:24:00;98803.91;;;17.10;58.35
64189;BME280;50493;50.970;10.082;2023-07-31T05:26:25;98803.75;;;17.13;62.20
64189;BME280;50493;50.970;10.082;2023-07-31T05:28:50;98807.81;;;17.19;62.33
64189;BME280;50493;50.970;10.082;2023-07-31T05:31:16;98809.56;;;17.04;62.32
64189;BME280;50493;50.970;10.082;2023-07-31T05:33:41;98811.28;;;17.19;62.30
64189;BME280;50493;50.970;10.082;2023-07-31T05:36:07;98811.78;;;17.26;57.83
64189;BME280;50493;50.970;10.082;2023-07-31T05:38:32;98802.66;;;17.32;59.19
64189;BME280;50493;50.970;10.082;2023-07-31T05:40:59;98807.34;;;17.27;62.77
64189;BME280;50493;50.970;10.082;2023-07-31T05:43:24;98814.56;;;17.09;57.60
64189;BME280;50493;50.970;10.082;2023-07-31T05:45:51;98807.03;;;17.62;60.32
64189;BME280;50493;50.970;10.082;2023-07-31T05:48:16;98799.66;;;17.83;59.02
64189;BME280;50493;50.970;10.082;2023-07-31T05:50:43;98802.34;;;17.67;55.84
64189;BME280;50493;50.970;10.082;2023-07-31T05:53:08;98798.78;;;17.38;56.09
64189;BME280;50493;50.970;10.082;2023-07-31T05:55:33;98799.66;;;17.38;59.23
64189;BME280;50493;50.970;10.082;2023-07-31T05:58:00;98798.06;;;17.95;58.51
64189;BME280;50493;50.970;10.082;2023-07-31T06:00:26;98789.81;;;17.99;59.19
64189;BME280;50493;50.970;10.082;2023-07-31T06:02:52;98789.94;;;17.98;58.61
64189;BME280;50493;50.970;10.082;2023-07-31T06:05:18;98788.59;;;18.05;57.70
64189;BME280;50493;50.970;10.082;2023-07-31T06:07:43;98794.72;;;18.20;57.56
64189;BME280;50493;50.970;10.082;2023-07-31T06:10:09;98789.31;;;18.22;58.81
64189;BME280;50493;50.970;10.082;2023-07-31T06:12:35;98791.78;;;18.25;58.06
64189;BME280;50493;50.970;10.082;2023-07-31T06:15:03;98788.56;;;18.34;57.72
64189;BME280;50493;50.970;10.082;2023-07-31T06:17:29;98795.38;;;18.24;54.83
64189;BME280;50493;50.970;10.082;2023-07-31T06:19:55;98791.41;;;18.31;56.23
64189;BME280;50493;50.970;10.082;2023-07-31T06:22:21;98789.13;;;18.53;58.27
64189;BME280;50493;50.970;10.082;2023-07-31T06:24:46;98797.63;;;18.59;57.81
64189;BME280;50493;50.970;10.082;2023-07-31T06:27:12;98791.59;;;18.42;58.50
64189;BME280;50493;50.970;10.082;2023-07-31T06:29:37;98789.28;;;18.50;57.83
64189;BME280;50493;50.970;10.082;2023-07-31T06:32:04;98791.91;;;18.65;57.98
64189;BME280;50493;50.970;10.082;2023-07-31T06:34:30;98790.81;;;18.55;54.00
64189;BME280;50493;50.970;10.082;2023-07-31T06:36:55;98781.78;;;18.30;54.67
64189;BME280;50493;50.970;10.082;2023-07-31T06:39:21;98787.13;;;18.43;54.22
64189;BME280;50493;50.970;10.082;2023-07-31T06:41:46;98782.78;;;18.56;57.63
64189;BME280;50493;50.970;10.082;2023-07-31T06:44:11;98778.25;;;18.44;58.41
64189;BME280;50493;50.970;10.082;2023-07-31T06:46:37;98775.00;;;18.26;56.08
64189;BME280;50493;50.970;10.082;2023-07-31T06:49:04;98772.56;;;18.08;56.81
64189;BME280;50493;50.970;10.082;2023-07-31T06:51:29;98768.38;;;18.18;56.27
64189;BME280;50493;50.970;10.082;2023-07-31T06:53:56;98772.75;;;18.47;57.49
64189;BME280;50493;50.970;10.082;2023-07-31T06:56:22;98767.94;;;18.39;55.34
64189;BME280;50493;50.970;10.082;2023-07-31T06:58:47;98766.19;;;18.25;55.68
64189;BME280;50493;50.970;10.082;2023-07-31T07:01:13;98767.09;;;17.82;57.90
64189;BME280;50493;50.970;10.082;2023-07-31T07:03:38;98763.31;;;17.86;57.27
64189;BME280;50493;50.970;10.082;2023-07-31T07:06:05;98760.84;;;18.12;58.84
64189;BME280;50493;50.970;10.082;2023-07-31T07:08:30;98761.22;;;17.92;59.18
64189;BME280;50493;50.970;10.082;2023-07-31T07:10:56;98760.84;;;17.98;55.76
64189;BME280;50493;50.970;10.082;2023-07-31T07:13:22;98759.50;;;18.19;57.81
64189;BME280;50493;50.970;10.082;2023-07-31T07:15:48;98764.75;;;18.34;53.96
64189;BME280;50493;50.970;10.082;2023-07-31T07:18:14;98767.34;;;18.48;56.79
64189;BME280;50493;50.970;10.082;2023-07-31T07:20:39;98770.94;;;18.62;56.38
64189;BME280;50493;50.970;10.082;2023-07-31T07:23:06;98761.50;;;18.58;54.87
64189;BME280;50493;50.970;10.082;2023-07-31T07:25:31;98763.69;;;18.78;56.66
64189;BME280;50493;50.970;10.082;2023-07-31T07:27:57;98758.47;;;18.64;56.08
64189;BME280;50493;50.970;10.082;2023-07-31T07:30:22;98766.66;;;18.74;55.52
64189;BME280;50493;50.970;10.082;2023-07-31T07:32:50;98770.31;;;18.58;53.80
64189;BME280;50493;50.970;10.082;2023-07-31T07:35:15;98773.06;;;18.42;58.08
64189;BME280;50493;50.970;10.082;2023-07-31T07:37:41;98768.13;;;18.50;58.45
64189;BME280;50493;50.970;10.082;2023-07-31T07:40:08;98768.31;;;18.47;56.62
64189;BME280;50493;50.970;10.082;2023-07-31T07:42:34;98763.41;;;18.41;58.23
64189;BME280;50493;50.970;10.082;2023-07-31T07:44:59;98757.78;;;18.18;62.09
64189;BME280;50493;50.970;10.082;2023-07-31T07:47:25;98764.56;;;18.37;55.18
64189;BME280;50493;50.970;10.082;2023-07-31T07:49:50;98766.88;;;18.14;61.39
64189;BME280;50493;50.970;10.082;2023-07-31T07:52:15;98766.19;;;18.25;57.87
64189;BME280;50493;50.970;10.082;2023-07-31T07:54:41;98766.53;;;18.33;60.93
64189;BME280;50493;50.970;10.082;2023-07-31T07:57:07;98769.06;;;18.64;56.78
64189;BME280;50493;50.970;10.082;2023-07-31T07:59:33;98769.44;;;18.58;59.29
64189;BME280;50493;50.970;10.082;2023-07-31T08:01:58;98771.16;;;18.44;61.53
64189;BME280;50493;50.970;10.082;2023-07-31T08:04:24;98765.47;;;18.50;55.32
64189;BME280;50493;50.970;10.082;2023-07-31T08:06:49;98770.41;;;18.42;56.79
64189;BME280;50493;50.970;10.082;2023-07-31T08:09:15;98777.31;;;18.30;59.38
64189;BME280;50493;50.970;10.082;2023-07-31T08:11:40;98766.41;;;18.08;59.09
64189;BME280;50493;50.970;10.082;2023-07-31T08:14:07;98769.94;;;18.35;60.68
64189;BME280;50493;50.970;10.082;2023-07-31T08:16:32;98764.84;;;18.32;58.39
64189;BME280;50493;50.970;10.082;2023-07-31T08:18:58;98761.72;;;18.40;57.28
64189;BME280;50493;50.970;10.082;2023-07-31T08:21:23;98760.53;;;18.17;58.99
64189;BME280;50493;50.970;10.082;2023-07-31T08:23:49;98753.69;;;18.00;60.89
64189;BME280;50493;50.970;10.082;2023-07-31T08:26:15;98752.59;;;18.02;60.34
64189;BME280;50493;50.970;10.082;2023-07-31T08:28:40;98734.44;;;18.52;55.19
64189;BME280;50493;50.970;10.082;2023-07-31T08:31:07;98735.81;;;18.60;55.85
64189;BME280;50493;50.970;10.082;2023-07-31T08:33:32;98747.75;;;18.38;57.77
64189;BME280;50493;50.970;10.082;2023-07-31T08:35:58;98731.31;;;18.33;58.35
64189;BME280;50493;50.970;10.082;2023-07-31T08:38:26;98728.00;;;18.29;59.07
64189;BME280;50493;50.970;10.082;2023-07-31T08:40:51;98733.41;;;18.28;57.76
64189;BME280;50493;50.970;10.082;2023-07-31T08:43:17;98733.69;;;18.65;56.62
64189;BME280;50493;50.970;10.082;2023-07-31T08:45:44;98731.25;;;19.02;57.07
64189;BME280;50493;50.970;10.082;2023-07-31T08:48:11;98722.81;;;18.69;54.06
64189;BME280;50493;50.970;10.082;2023-07-31T08:50:37;98730.50;;;19.00;56.31
64189;BME280;50493;50.970;10.082;2023-07-31T08:53:03;98723.41;;;19.13;55.55
64189;BME280;50493;50.970;10.082;2023-07-31T08:55:29;98721.44;;;18.77;56.75
64189;BME280;50493;50.970;10.082;2023-07-31T08:57:55;98718.88;;;19.15;56.61
64189;BME280;50493;50.970;10.082;2023-07-31T09:00:21;98706.91;;;19.10;55.18
64189;BME280;50493;50.970;10.082;2023-07-31T09:02:54;98718.75;;;18.36;57.57
64189;BME280;50493;50.970;10.082;2023-07-31T09:05:23;98729.16;;;18.67;56.99
64189;BME280;50493;50.970;10.082;2023-07-31T09:07:49;98728.53;;;19.16;55.26
64189;BME280;50493;50.970;10.082;2023-07-31T09:10:15;98729.97;;;18.95;55.25
64189;BME280;50493;50.970;10.082;2023-07-31T09:12:40;98728.66;;;18.87;55.81
64189;BME280;50493;50.970;10.082;2023-07-31T09:15:07;98731.03;;;19.05;54.99
64189;BME280;50493;50.970;10.082;2023-07-31T09:17:35;98736.13;;;19.08;56.76
64189;BME280;50493;50.970;10.082;2023-07-31T09:20:15;98727.31;;;18.55;56.55
64189;BME280;50493;50.970;10.082;2023-07-31T09:22:42;98734.38;;;18.81;55.45
64189;BME280;50493;50.970;10.082;2023-07-31T09:25:14;98735.88;;;18.85;55.75
64189;BME280;50493;50.970;10.082;2023-07-31T09:27:50;98727.31;;;18.55;56.87
64189;BME280;50493;50.970;10.082;2023-07-31T09:30:17;98732.91;;;18.77;55.22
64189;BME280;50493;50.970;10.082;2023-07-31T09:32:43;98730.25;;;18.77;55.94
64189;BME280;50493;50.970;10.082;2023-07-31T09:35:20;98739.00;;;19.31;55.28
64189;BME280;50493;50.970;10.082;2023-07-31T09:37:50;98731.28;;;19.28;53.28
64189;BME280;50493;50.970;10.082;2023-07-31T09:40:25;98738.44;;;19.00;54.49
64189;BME280;50493;50.970;10.082;2023-07-31T09:42:51;98721.03;;;19.36;53.61
64189;BME280;50493;50.970;10.082;2023-07-31T09:45:18;98730.19;;;19.04;55.01
64189;BME280;50493;50.970;10.082;2023-07-31T09:47:46;98713.81;;;18.85;54.92
64189;BME280;50493;50.970;10.082;2023-07-31T09:50:14;98725.94;;;19.02;54.15
64189;BME280;50493;50.970;10.082;2023-07-31T09:52:39;98725.38;;;18.57;55.62
64189;BME280;50493;50.970;10.082;2023-07-31T09:55:07;98728.66;;;18.87;54.99
64189;BME280;50493;50.970;10.082;2023-07-31T09:57:33;98723.19;;;19.03;54.70
64189;BME280;50493;50.970;10.082;2023-07-31T10:00:00;98724.56;;;18.96;54.75
64189;BME280;50493;50.970;10.082;2023-07-31T10:02:26;98706.91;;;19.10;54.76
64189;BME280;50493;50.970;10.082;2023-07-31T10:04:57;98699.16;;;19.19;53.96
64189;BME280;50493;50.970;10.082;2023-07-31T10:07:25;98702.44;;;19.10;54.12
64189;BME280;50493;50.970;10.082;2023-07-31T10:09:51;98703.50;;;18.95;55.59
64189;BME280;50493;50.970;10.082;2023-07-31T10:12:19;98711.59;;;18.51;56.30
64189;BME280;50493;50.970;10.082;2023-07-31T10:14:47;98707.31;;;18.91;55.39
64189;BME280;50493;50.970;10.082;2023-07-31T10:17:13;98702.13;;;18.62;56.36
64189;BME280;50493;50.970;10.082;2023-07-31T10:19:40;98722.50;;;18.74;58.04
64189;BME280;50493;50.970;10.082;2023-07-31T10:22:06;98722.97;;;18.94;55.83
64189;BME280;50493;50.970;10.082;2023-07-31T10:24:33;98711.72;;;18.77;57.89
64189;BME280;50493;50.970;10.082;2023-07-31T10:27:00;98708.50;;;18.72;60.55
64189;BME280;50493;50.970;10.082;2023-07-31T10:29:28;98720.25;;;18.68;59.44
64189;BME280;50493;50.970;10.082;2023-07-31T10:31:56;98711.34;;;19.09;60.95
64189;BME280;50493;50.970;10.082;2023-07-31T10:34:22;98708.97;;;18.92;60.12
64189;BME280;50493;50.970;10.082;2023-07-31T10:36:48;98704.09;;;18.85;61.36
64189;BME280;50493;50.970;10.082;2023-07-31T10:39:35;98694.53;;;19.36;61.97
64189;BME280;50493;50.970;10.082;2023-07-31T10:42:10;98688.78;;;19.29;55.22
64189;BME280;50493;50.970;10.082;2023-07-31T10:44:37;98690.81;;;19.64;61.43
64189;BME280;50493;50.970;10.082;2023-07-31T10:47:02;98690.47;;;19.69;57.53
64189;BME280;50493;50.970;10.082;2023-07-31T10:49:29;98691.22;;;19.71;55.61
64189;BME280;50493;50.970;10.082;2023-07-31T10:51:56;98690.06;;;19.36;55.69
64189;BME280;50493;50.970;10.082;2023-07-31T10:54:22;98689.53;;;19.70;60.58
64189;BME280;50493;50.970;10.082;2023-07-31T10:56:50;98695.47;;;19.35;55.59
64189;BME280;50493;50.970;10.082;2023-07-31T10:59:15;98688.19;;;19.39;60.55
64189;BME280;50493;50.970;10.082;2023-07-31T11:01:55;98689.50;;;19.18;61.31
64189;BME280;50493;50.970;10.082;2023-07-31T11:04:24;98678.94;;;19.44;61.28
64189;BME280;50493;50.970;10.082;2023-07-31T11:06:56;98669.81;;;19.61;59.94
64189;BME280;50493;50.970;10.082;2023-07-31T11:09:22;98663.00;;;19.70;60.81
64189;BME280;50493;50.970;10.082;2023-07-31T11:11:47;98670.88;;;19.33;61.34
64189;BME280;50493;50.970;10.082;2023-07-31T11:14:15;98668.53;;;19.28;61.25
64189;BME280;50493;50.970;10.082;2023-07-31T11:16:41;98671.00;;;19.44;60.72
64189;BME280;50493;50.970;10.082;2023-07-31T11:19:09;98667.81;;;19.26;60.64
64189;BME280;50493;50.970;10.082;2023-07-31T11:21:34;98660.50;;;19.17;59.86
64189;BME280;50493;50.970;10.082;2023-07-31T11:24:00;98664.09;;;19.29;61.00
64189;BME280;50493;50.970;10.082;2023-07-31T11:26:25;98654.75;;;18.97;59.63
64189;BME280;50493;50.970;10.082;2023-07-31T11:28:53;98665.13;;;18.75;61.58
64189;BME280;50493;50.970;10.082;2023-07-31T11:31:18;98657.06;;;18.76;59.29
64189;BME280;50493;50.970;10.082;2023-07-31T11:33:44;98662.50;;;19.00;60.89
64189;BME280;50493;50.970;10.082;2023-07-31T11:36:15;98675.28;;;18.81;60.61
64189;BME280;50493;50.970;10.082;2023-07-31T11:38:41;98671.03;;;18.78;59.38
64189;BME280;50493;50.970;10.082;2023-07-31T11:41:07;98671.78;;;18.80;60.64
64189;BME280;50493;50.970;10.082;2023-07-31T11:43:32;98668.25;;;18.67;60.76
64189;BME280;50493;50.970;10.082;2023-07-31T11:45:59;98666.56;;;18.66;58.96
64189;BME280;50493;50.970;10.082;2023-07-31T11:48:28;98657.78;;;18.78;60.90
64189;BME280;50493;50.970;10.082;2023-07-31T11:50:57;98635.91;;;19.02;58.04
64189;BME280;50493;50.970;10.082;2023-07-31T11:53:26;98637.84;;;19.39;57.73
64189;BME280;50493;50.970;10.082;2023-07-31T11:55:54;98642.28;;;19.12;59.68
64189;BME280;50493;50.970;10.082;2023-07-31T11:58:20;98629.84;;;19.26;60.36
64189;BME280;50493;50.970;10.082;2023-07-31T12:00:47;98631.03;;;19.47;57.37
64189;BME280;50493;50.970;10.082;2023-07-31T12:03:13;98623.72;;;19.25;59.05
64189;BME280;50493;50.970;10.082;2023-07-31T12:05:39;98631.97;;;19.33;58.81
64189;BME280;50493;50.970;10.082;2023-07-31T12:08:09;98632.91;;;19.58;59.45
64189;BME280;50493;50.970;10.082;2023-07-31T12:10:38;98624.34;;;19.92;56.71
64189;BME280;50493;50.970;10.082;2023-07-31T12:13:06;98629.72;;;20.03;58.76
64189;BME280;50493;50.970;10.082;2023-07-31T12:15:37;98632.94;;;19.95;61.19
64189;BME280;50493;50.970;10.082;2023-07-31T12:18:07;98628.16;;;20.00;56.82
64189;BME280;50493;50.970;10.082;2023-07-31T12:20:33;98621.31;;;20.09;57.95
64189;BME280;50493;50.970;10.082;2023-07-31T12:22:59;98619.78;;;19.94;61.23
64189;BME280;50493;50.970;10.082;2023-07-31T12:25:29;98625.16;;;20.05;56.32
64189;BME280;50493;50.970;10.082;2023-07-31T12:27:55;98625.97;;;20.18;55.18
64189;BME280;50493;50.970;10.082;2023-07-31T12:30:28;98607.16;;;20.21;59.91
64189;BME280;50493;50.970;10.082;2023-07-31T12:32:54;98615.78;;;20.36;56.73
64189;BME280;50493;50.970;10.082;2023-07-31T12:35:19;98607.66;;;20.27;59.49
64189;BME280;50493;50.970;10.082;2023-07-31T12:37:45;98609.22;;;20.53;56.31
64189;BME280;50493;50.970;10.082;2023-07-31T12:40:11;98608.09;;;20.45;59.00
64189;BME280;50493;50.970;10.082;2023-07-31T12:42:36;98608.16;;;20.20;57.64
64189;BME280;50493;50.970;10.082;2023-07-31T12:45:04;98599.00;;;20.25;53.51
64189;BME280;50493;50.970;10.082;2023-07-31T12:47:29;98596.22;;;20.26;54.21